createdAt,value
2023-01-06T00:01:16.661Z,101709.22
2023-01-06T00:04:21.996Z,101696.94
2023-01-06T00:07:25.645Z,101696.94
2023-01-06T00:10:29.490Z,101689.97
2023-01-06T00:13:33.111Z,101690.84
2023-01-06T00:16:38.190Z,101690.00
2023-01-06T00:19:43.228Z,101688.31
2023-01-06T00:22:46.908Z,101679.59
2023-01-06T00:25:51.535Z,101682.25
2023-01-06T00:28:56.174Z,101681.38
2023-01-06T00:32:01.563Z,101670.94
2023-01-06T00:35:07.683Z,101674.38
2023-01-06T00:38:11.389Z,101677.88
2023-01-06T00:41:33.967Z,101676.03
2023-01-06T00:44:40.477Z,101676.94
2023-01-06T00:47:44.262Z,101669.13
2023-01-06T00:50:49.264Z,101665.59
2023-01-06T00:53:52.994Z,101656.03
2023-01-06T00:56:57.216Z,101661.25
2023-01-06T01:00:00.931Z,101662.16
2023-01-06T01:03:04.719Z,101651.69
2023-01-06T01:06:11.740Z,101649.00
2023-01-06T01:09:18.737Z,101641.19
2023-01-06T01:12:22.290Z,101637.72
2023-01-06T01:15:25.937Z,101637.66
2023-01-06T01:18:29.618Z,101641.09
2023-01-06T01:21:35.161Z,101634.97
2023-01-06T01:24:39.626Z,101632.34
2023-01-06T01:27:44.007Z,101638.47
2023-01-06T01:30:47.786Z,101630.56
2023-01-06T01:33:51.605Z,101637.53
2023-01-06T01:36:57.826Z,101627.91
2023-01-06T01:40:01.451Z,101624.44
2023-01-06T01:43:05.107Z,101623.53
2023-01-06T01:46:08.859Z,101637.53
2023-01-06T01:49:18.109Z,101628.78
2023-01-06T01:52:25.307Z,101626.13
2023-01-06T01:55:33.173Z,101623.53
2023-01-06T01:58:43.701Z,101620.88
2023-01-06T02:01:49.487Z,101623.47
2023-01-06T02:04:56.456Z,101623.44
2023-01-06T02:08:11.183Z,101618.13
2023-01-06T02:11:14.808Z,101614.63
2023-01-06T02:14:25.433Z,101612.88
2023-01-06T02:18:28.565Z,101609.44
2023-01-06T02:21:53.722Z,101605.97
2023-01-06T02:25:38.934Z,101598.97
2023-01-06T02:29:40.900Z,101588.56
2023-01-06T02:33:07.255Z,101582.44
2023-01-06T02:36:28.596Z,101580.69
2023-01-06T02:39:50.717Z,101578.09
2023-01-06T02:43:14.238Z,101580.69
2023-01-06T02:46:35.094Z,101571.03
2023-01-06T02:49:49.996Z,101564.06
2023-01-06T02:53:08.274Z,101559.69
2023-01-06T02:56:12.689Z,101557.91
2023-01-06T02:59:27.310Z,101551.78
2023-01-06T03:02:34.070Z,101546.56
2023-01-06T03:05:41.230Z,101537.81
2023-01-06T03:08:47.851Z,101532.53
2023-01-06T03:11:53.005Z,101532.53
2023-01-06T03:14:58.073Z,101529.03
2023-01-06T03:18:02.029Z,101525.53
2023-01-06T03:21:14.462Z,101510.63
2023-01-06T03:24:19.550Z,101508.03
2023-01-06T03:27:27.996Z,101509.72
2023-01-06T03:30:46.967Z,101513.19
2023-01-06T03:34:01.524Z,101514.97
2023-01-06T03:37:26.692Z,101510.56
2023-01-06T03:40:39.277Z,101503.63
2023-01-06T03:43:59.590Z,101505.41
2023-01-06T03:47:18.947Z,101495.81
2023-01-06T03:50:33.992Z,101497.56
2023-01-06T03:53:47.733Z,101502.78
2023-01-06T03:56:59.644Z,101493.19
2023-01-06T04:00:08.396Z,101486.19
2023-01-06T04:03:15.907Z,101484.44
2023-01-06T04:06:19.556Z,101480.03
2023-01-06T04:09:24.607Z,101480.88
2023-01-06T04:12:40.259Z,101466.03
2023-01-06T04:15:43.863Z,101459.09
2023-01-06T04:18:47.406Z,101456.44
2023-01-06T04:21:51.024Z,101452.16
2023-01-06T04:24:56.031Z,101445.19
2023-01-06T04:27:59.670Z,101441.72
2023-01-06T04:31:04.007Z,101436.47
2023-01-06T04:34:07.667Z,101438.31
2023-01-06T04:37:11.353Z,101429.53
2023-01-06T04:40:16.539Z,101422.56
2023-01-06T04:43:20.223Z,101432.09
2023-01-06T04:46:23.822Z,101415.53
2023-01-06T04:49:27.566Z,101399.78
2023-01-06T04:52:31.343Z,101395.41
2023-01-06T04:55:39.827Z,101392.75
2023-01-06T04:58:43.577Z,101389.25
2023-01-06T05:01:47.284Z,101393.50
2023-01-06T05:04:50.929Z,101379.56
2023-01-06T05:07:56.152Z,101386.63
2023-01-06T05:11:07.293Z,101400.50
2023-01-06T05:14:10.942Z,101397.88
2023-01-06T05:17:14.627Z,101402.16
2023-01-06T05:20:18.432Z,101398.72
2023-01-06T05:23:22.914Z,101398.69
2023-01-06T05:26:29.430Z,101399.50
2023-01-06T05:29:33.233Z,101401.25
2023-01-06T05:32:36.996Z,101395.19
2023-01-06T05:35:40.704Z,101393.34
2023-01-06T05:38:44.836Z,101396.84
2023-01-06T05:41:49.865Z,101388.16
2023-01-06T05:44:53.463Z,101389.88
2023-01-06T05:47:58.032Z,101376.75
2023-01-06T05:51:07.388Z,101366.38
2023-01-06T05:54:11.486Z,101368.97
2023-01-06T05:57:16.460Z,101372.44
2023-01-06T06:00:20.866Z,101369.78
2023-01-06T06:03:24.494Z,101346.28
2023-01-06T06:06:30.838Z,101351.47
2023-01-06T06:09:34.541Z,101340.16
2023-01-06T06:12:39.542Z,101343.63
2023-01-06T06:15:43.173Z,101343.66
2023-01-06T06:18:52.032Z,101339.25
2023-01-06T06:21:55.636Z,101330.50
2023-01-06T06:24:59.355Z,101339.22
2023-01-06T06:28:04.335Z,101330.44
2023-01-06T06:31:10.866Z,101332.88
2023-01-06T06:34:19.654Z,101319.94
2023-01-06T06:37:23.777Z,101322.63
2023-01-06T06:40:27.515Z,101318.97
2023-01-06T06:43:33.405Z,101324.22
2023-01-06T06:46:37.085Z,101326.75
2023-01-06T06:49:40.762Z,101323.28
2023-01-06T06:52:44.378Z,101321.50
2023-01-06T06:55:48.047Z,101329.22
2023-01-06T06:58:54.033Z,101316.19
2023-01-06T07:01:57.737Z,101310.94
2023-01-06T07:05:01.430Z,101310.84
2023-01-06T07:08:05.651Z,101313.53
2023-01-06T07:11:10.053Z,101309.97
2023-01-06T07:14:15.087Z,101298.56
2023-01-06T07:17:18.783Z,101294.16
2023-01-06T07:20:22.559Z,101289.03
2023-01-06T07:23:26.708Z,101283.78
2023-01-06T07:26:30.483Z,101277.75
2023-01-06T07:29:35.536Z,101277.78
2023-01-06T07:32:40.266Z,101284.75
2023-01-06T07:35:43.917Z,101277.72
2023-01-06T07:38:47.727Z,101272.41
2023-01-06T07:41:51.777Z,101264.59
2023-01-06T07:44:56.826Z,101260.28
2023-01-06T07:48:00.528Z,101270.69
2023-01-06T07:51:04.563Z,101278.50
2023-01-06T07:54:08.375Z,101277.56
2023-01-06T07:57:12.043Z,101288.16
2023-01-06T08:00:17.844Z,101283.09
2023-01-06T08:03:22.141Z,101285.78
2023-01-06T08:06:25.830Z,101284.00
2023-01-06T08:09:29.438Z,101278.88
2023-01-06T08:12:33.067Z,101289.34
2023-01-06T08:15:39.671Z,101279.78
2023-01-06T08:18:43.600Z,101276.28
2023-01-06T08:21:48.098Z,101282.38
2023-01-06T08:24:51.719Z,101284.16
2023-01-06T08:27:55.485Z,101285.84
2023-01-06T08:31:01.173Z,101287.66
2023-01-06T08:34:05.796Z,101289.44
2023-01-06T08:37:09.440Z,101286.03
2023-01-06T08:40:13.573Z,101290.44
2023-01-06T08:43:17.230Z,101291.31
2023-01-06T08:46:22.692Z,101292.25
2023-01-06T08:49:26.440Z,101294.03
2023-01-06T08:52:33.550Z,101294.13
2023-01-06T08:55:40.864Z,101305.47
2023-01-06T08:58:44.694Z,101308.13
2023-01-06T09:01:49.910Z,101309.00
2023-01-06T09:04:53.654Z,101319.50
2023-01-06T09:07:57.350Z,101315.19
2023-01-06T09:11:06.893Z,101319.44
2023-01-06T09:14:11.238Z,101317.75
2023-01-06T09:17:16.362Z,101318.63
2023-01-06T09:20:20.151Z,101323.88
2023-01-06T09:23:23.947Z,101333.47
2023-01-06T09:26:27.619Z,101329.13
2023-01-06T09:29:31.293Z,101341.13
2023-01-06T09:32:36.312Z,101338.47
2023-01-06T09:35:39.897Z,101340.25
2023-01-06T09:38:43.568Z,101339.34
2023-01-06T09:42:19.633Z,101336.69
2023-01-06T09:45:39.508Z,101353.22
2023-01-06T09:48:59.193Z,101352.16
2023-01-06T09:52:13.216Z,101343.44
2023-01-06T09:55:26.526Z,101342.50
2023-01-06T09:58:38.579Z,101342.34
2023-01-06T10:01:48.761Z,101354.34
2023-01-06T10:04:54.185Z,101362.97
2023-01-06T10:08:09.874Z,101356.59
2023-01-06T10:11:18.375Z,101352.94
2023-01-06T10:14:38.655Z,101357.72
2023-01-06T10:18:06.271Z,101353.03
2023-01-06T10:21:25.112Z,101357.13
2023-01-06T10:24:50.137Z,101370.34
2023-01-06T10:28:02.918Z,101386.31
2023-01-06T10:31:13.364Z,101380.31
2023-01-06T10:34:24.416Z,101381.03
2023-01-06T10:37:38.875Z,101387.19
2023-01-06T10:40:42.655Z,101393.59
2023-01-06T10:43:46.398Z,101405.13
2023-01-06T10:46:50.275Z,101391.63
2023-01-06T10:49:54.237Z,101392.75
2023-01-06T10:52:59.344Z,101397.88
2023-01-06T10:56:05.154Z,101402.91
2023-01-06T10:59:12.527Z,101407.31
2023-01-06T11:02:24.322Z,101417.56
2023-01-06T11:05:31.496Z,101414.94
2023-01-06T11:08:38.764Z,101421.09
2023-01-06T11:11:51.744Z,101428.94
2023-01-06T11:15:01.028Z,101426.47
2023-01-06T11:18:06.450Z,101428.16
2023-01-06T11:21:12.932Z,101434.28
2023-01-06T11:24:24.213Z,101432.56
2023-01-06T11:27:28.141Z,101435.97
2023-01-06T11:30:31.978Z,101439.50
2023-01-06T11:33:38.848Z,101450.16
2023-01-06T11:36:47.360Z,101460.66
2023-01-06T11:40:00.485Z,101457.19
2023-01-06T11:43:18.551Z,101452.22
2023-01-06T11:46:26.429Z,101453.25
2023-01-06T11:49:36.100Z,101466.50
2023-01-06T11:52:41.173Z,101474.41
2023-01-06T11:55:58.845Z,101464.69
2023-01-06T11:59:11.000Z,101462.91
2023-01-06T12:02:26.925Z,101466.28
2023-01-06T12:05:42.947Z,101462.66
2023-01-06T12:08:57.088Z,101453.81
2023-01-06T12:12:08.329Z,101461.66
2023-01-06T12:15:28.172Z,101469.47
2023-01-06T12:18:37.435Z,101471.19
2023-01-06T12:21:43.390Z,101470.34
2023-01-06T12:24:49.961Z,101466.75
2023-01-06T12:28:01.191Z,101472.78
2023-01-06T12:31:11.907Z,101464.81
2023-01-06T12:34:24.677Z,101464.84
2023-01-06T12:37:38.949Z,101467.56
2023-01-06T12:40:51.758Z,101455.28
2023-01-06T12:44:11.096Z,101459.84
2023-01-06T12:47:25.244Z,101462.59
2023-01-06T12:50:40.425Z,101469.66
2023-01-06T12:53:56.209Z,101479.34
2023-01-06T12:57:31.250Z,101482.03
2023-01-06T13:00:48.856Z,101482.78
2023-01-06T13:04:25.532Z,101474.06
2023-01-06T13:07:43.912Z,101480.81
2023-01-06T13:11:00.113Z,101477.50
2023-01-06T13:14:17.562Z,101486.28
2023-01-06T13:17:35.045Z,101494.25
2023-01-06T13:20:45.604Z,101486.56
2023-01-06T13:24:22.628Z,101492.78
2023-01-06T13:27:52.185Z,101497.19
2023-01-06T13:31:40.916Z,101509.59
2023-01-06T13:35:27.480Z,101510.63
2023-01-06T13:39:00.123Z,101519.41
2023-01-06T13:42:09.093Z,101510.75
2023-01-06T13:45:34.653Z,101517.75
2023-01-06T13:48:44.689Z,101526.50
2023-01-06T13:51:49.708Z,101525.66
2023-01-06T13:55:06.579Z,101526.56
2023-01-06T13:58:38.781Z,101525.66
2023-01-06T14:01:42.576Z,101524.84
2023-01-06T14:04:49.603Z,101523.09
2023-01-06T14:07:57.235Z,101518.75
2023-01-06T14:11:21.940Z,101525.75
2023-01-06T14:14:29.655Z,101534.47
2023-01-06T14:17:41.728Z,101533.63
2023-01-06T14:20:45.437Z,101543.19
2023-01-06T14:24:19.506Z,101548.38
2023-01-06T14:28:10.383Z,101554.50
2023-01-06T14:31:47.749Z,101544.09
2023-01-06T14:34:55.130Z,101551.13
2023-01-06T14:38:03.856Z,101552.94
2023-01-06T14:41:21.662Z,101554.75
2023-01-06T14:44:35.302Z,101559.09
2023-01-06T14:47:46.155Z,101560.94
2023-01-06T14:50:56.088Z,101559.28
2023-01-06T14:54:06.317Z,101561.91
2023-01-06T14:57:27.138Z,101560.25
2023-01-06T15:00:33.595Z,101555.97
2023-01-06T15:03:38.490Z,101564.66
2023-01-06T15:06:42.125Z,101563.03
2023-01-06T15:09:46.260Z,101563.97
2023-01-06T15:12:57.226Z,101564.00
2023-01-06T15:16:07.465Z,101581.34
2023-01-06T15:19:17.430Z,101582.13
2023-01-06T15:22:25.300Z,101573.50
2023-01-06T15:25:33.049Z,101579.69
2023-01-06T15:28:38.735Z,101575.34
2023-01-06T15:31:44.303Z,101577.97
2023-01-06T15:34:51.078Z,101582.38
2023-01-06T15:38:04.325Z,101587.50
2023-01-06T15:41:29.392Z,101589.34
2023-01-06T15:44:36.894Z,101591.09
2023-01-06T15:47:48.793Z,101580.66
2023-01-06T15:50:53.236Z,101586.72
2023-01-06T15:54:00.190Z,101577.16
2023-01-06T15:57:16.511Z,101587.66
2023-01-06T16:00:26.294Z,101581.56
2023-01-06T16:03:33.099Z,101583.22
2023-01-06T16:06:38.722Z,101583.22
2023-01-06T16:09:42.333Z,101582.41
2023-01-06T16:12:46.097Z,101582.38
2023-01-06T16:15:57.773Z,101570.22
2023-01-06T16:19:11.462Z,101572.00
2023-01-06T16:22:33.459Z,101584.19
2023-01-06T16:25:37.623Z,101588.63
2023-01-06T16:28:49.742Z,101594.78
2023-01-06T16:31:55.525Z,101603.50
2023-01-06T16:35:12.090Z,101604.41
2023-01-06T16:38:15.999Z,101602.72
2023-01-06T16:41:21.144Z,101606.09
2023-01-06T16:44:24.745Z,101605.34
2023-01-06T16:47:33.137Z,101599.25
2023-01-06T16:50:42.482Z,101604.53
2023-01-06T16:53:47.264Z,101609.69
2023-01-06T16:56:52.258Z,101616.69
2023-01-06T16:59:56.309Z,101610.59
2023-01-06T17:03:01.702Z,101613.19
2023-01-06T17:06:11.977Z,101620.22
2023-01-06T17:09:21.714Z,101622.84
2023-01-06T17:12:39.725Z,101620.34
2023-01-06T17:15:43.742Z,101620.28
2023-01-06T17:18:56.336Z,101625.56
2023-01-06T17:22:12.431Z,101626.41
2023-01-06T17:25:16.640Z,101629.00
2023-01-06T17:28:23.517Z,101629.88
2023-01-06T17:31:40.897Z,101632.56
2023-01-06T17:34:46.108Z,101635.22
2023-01-06T17:37:50.000Z,101630.06
2023-01-06T17:40:54.913Z,101639.66
2023-01-06T17:43:58.744Z,101644.00
2023-01-06T17:47:03.902Z,101645.78
2023-01-06T17:50:29.344Z,101649.28
2023-01-06T17:53:54.580Z,101642.34
2023-01-06T17:56:58.187Z,101650.16
2023-01-06T18:00:16.472Z,101644.06
2023-01-06T18:03:24.964Z,101645.78
2023-01-06T18:06:37.454Z,101651.00
2023-01-06T18:09:41.516Z,101633.69
2023-01-06T18:12:45.224Z,101649.31
2023-01-06T18:15:52.324Z,101655.41
2023-01-06T18:19:05.877Z,101651.06
2023-01-06T18:22:18.964Z,101647.56
2023-01-06T18:25:27.567Z,101648.38
2023-01-06T18:28:31.512Z,101651.03
2023-01-06T18:31:39.818Z,101654.53
2023-01-06T18:34:46.913Z,101651.03
2023-01-06T18:37:52.905Z,101659.75
2023-01-06T18:40:57.055Z,101671.09
2023-01-06T18:44:00.855Z,101674.56
2023-01-06T18:47:16.107Z,101670.22
2023-01-06T18:50:32.282Z,101665.06
2023-01-06T18:53:43.932Z,101671.06
2023-01-06T18:56:47.816Z,101668.50
2023-01-06T18:59:51.837Z,101676.31
2023-01-06T19:03:10.248Z,101666.78
2023-01-06T19:06:49.760Z,101666.00
2023-01-06T19:09:54.753Z,101685.09
2023-01-06T19:13:01.188Z,101681.63
2023-01-06T19:16:31.587Z,101677.25
2023-01-06T19:19:39.639Z,101672.94
2023-01-06T19:22:43.952Z,101673.84
2023-01-06T19:25:53.269Z,101663.44
2023-01-06T19:29:04.285Z,101665.22
2023-01-06T19:32:16.711Z,101660.03
2023-01-06T19:35:25.465Z,101667.81
2023-01-06T19:38:35.848Z,101667.88
2023-01-06T19:41:40.869Z,101666.16
2023-01-06T19:44:48.251Z,101660.06
2023-01-06T19:47:51.892Z,101656.56
2023-01-06T19:51:03.619Z,101653.13
2023-01-06T19:54:27.429Z,101657.50
2023-01-06T19:57:42.777Z,101661.84
2023-01-06T20:00:50.229Z,101665.31
2023-01-06T20:03:56.922Z,101660.97
2023-01-06T20:07:02.167Z,101666.16
2023-01-06T20:10:06.799Z,101665.31
2023-01-06T20:13:11.835Z,101667.91
2023-01-06T20:16:15.951Z,101667.91
2023-01-06T20:19:21.565Z,101667.91
2023-01-06T20:22:26.286Z,101673.97
2023-01-06T20:25:30.058Z,101669.66
2023-01-06T20:28:35.015Z,101680.06
2023-01-06T20:31:38.948Z,101678.34
2023-01-06T20:34:42.686Z,101680.91
2023-01-06T20:37:46.461Z,101681.78
2023-01-06T20:40:50.284Z,101672.25
2023-01-06T20:43:55.279Z,101673.97
2023-01-06T20:46:59.072Z,101677.44
2023-01-06T20:50:02.826Z,101675.72
2023-01-06T20:53:06.572Z,101668.78
2023-01-06T20:56:10.403Z,101680.91
2023-01-06T20:59:15.448Z,101673.97
2023-01-06T21:02:19.429Z,101670.50
2023-01-06T21:05:23.143Z,101669.63
2023-01-06T21:08:26.850Z,101672.22
2023-01-06T21:11:30.440Z,101672.22
2023-01-06T21:14:35.544Z,101671.38
2023-01-06T21:17:39.200Z,101668.78
2023-01-06T21:20:42.766Z,101675.69
2023-01-06T21:23:46.494Z,101677.44
2023-01-06T21:26:50.161Z,101673.94
2023-01-06T21:29:55.192Z,101670.50
2023-01-06T21:32:58.931Z,101680.88
2023-01-06T21:36:02.746Z,101675.66
2023-01-06T21:39:07.493Z,101671.34
2023-01-06T21:42:28.368Z,101668.75
2023-01-06T21:45:33.465Z,101660.06
2023-01-06T21:48:37.156Z,101652.25
2023-01-06T21:51:43.086Z,101644.47
2023-01-06T21:54:47.183Z,101638.38
2023-01-06T21:57:51.496Z,101643.53
2023-01-06T22:00:56.579Z,101642.66
2023-01-06T22:04:00.273Z,101644.44
2023-01-06T22:07:09.300Z,101660.88
2023-01-06T22:10:15.919Z,101651.41
2023-01-06T22:13:23.666Z,101650.56
2023-01-06T22:16:29.171Z,101652.28
2023-01-06T22:19:33.089Z,101649.66
2023-01-06T22:22:38.071Z,101647.91
2023-01-06T22:25:41.873Z,101650.53
2023-01-06T22:28:45.515Z,101650.47
2023-01-06T22:31:50.524Z,101654.78
2023-01-06T22:34:54.114Z,101657.38
2023-01-06T22:37:59.231Z,101666.91
2023-01-06T22:41:03.057Z,101665.19
2023-01-06T22:44:06.820Z,101656.53
2023-01-06T22:47:12.010Z,101662.63
2023-01-06T22:50:15.940Z,101660.88
2023-01-06T22:53:19.680Z,101675.56
2023-01-06T22:56:23.288Z,101672.16
2023-01-06T22:59:26.860Z,101667.78
2023-01-06T23:02:32.093Z,101660.03
2023-01-06T23:05:36.029Z,101653.09
2023-01-06T23:08:58.586Z,101650.47
2023-01-06T23:12:03.038Z,101649.63
2023-01-06T23:15:09.218Z,101658.31
2023-01-06T23:18:14.145Z,101653.13
2023-01-06T23:21:21.890Z,101652.22
2023-01-06T23:24:25.731Z,101647.91
2023-01-06T23:27:31.229Z,101647.94
2023-01-06T23:30:36.279Z,101649.69
2023-01-06T23:33:43.173Z,101635.81
2023-01-06T23:36:48.408Z,101644.50
2023-01-06T23:39:53.402Z,101639.28
2023-01-06T23:42:57.024Z,101641.03
2023-01-06T23:46:02.229Z,101637.56
2023-01-06T23:49:08.757Z,101635.81
2023-01-06T23:52:12.449Z,101632.31
2023-01-06T23:55:16.305Z,101636.66
2023-01-06T23:58:19.943Z,101641.00
